DAUL/LOO METAR and TAF weather

Enter ICAO airport designator
Station Type Date Time Source
DAUL METAR 2021/09/16 10:00 UTC NOAA

DAUL 161000Z 18018KT 4000 DRDU FEW033 SCT080 33/04 Q1020


Station Type Date Time Source
DAUL Decoded METAR 2021/09/16 10:00 UTC NOAA

Laghouat, Algeria (DAUL) 33-46N 002-56E 765M
Sep 16, 2021 - 06:00 AM EDT / 2021.09.16 1000 UTC
Wind: from the S (180 degrees) at 21 MPH (18 KT):0
Visibility: 2 mile(s):0
Sky conditions: partly cloudy
Weather: low drifting widespread dust
Temperature: 91 F (33 C)
Dew Point: 39 F (4 C)
Relative Humidity: 16%
Pressure (altimeter): 30.12 in. Hg (1020 hPa)
ob: DAUL 161000Z 18018KT 4000 DRDU FEW033 SCT080 33/04 Q1020
cycle: 10

Station Type Date Time Source
DAUL TAF 2017/11/09 18:03 UTC NOAA

TAF DAUL 091700Z 0918/1009 02012KT 9999 SCT030 SCT100 PROB40
TEMPO 0918/0924 35020G30KT 4000 -TSRA FEW030CB

Example: see airport list